EDDK/CGN METAR and TAF weather

Enter ICAO airport designator
Station Type Date Time Source
EDDK METAR 2022/05/23 13:50 UTC NOAA

EDDK 231350Z AUTO 21003KT 160V270 9999 SHRA BKN039 FEW///TCU 21/17 Q0999 TEMPO 24015G30KT 4000 TSRA BKN025CB


Station Type Date Time Source
EDDK Decoded METAR 2022/05/23 13:50 UTC NOAA

Koeln / Bonn, Germany (EDDK) 50-52N 007-10E 100M
May 23, 2022 - 09:50 AM EDT / 2022.05.23 1350 UTC
Wind: from the SSW (210 degrees) at 3 MPH (3 KT) (direction variable):0
Visibility: greater than 7 mile(s):0
Sky conditions: mostly cloudy
Weather: rain showers; Cumulonimbus clouds, towering cumulus clouds observed
Temperature: 69 F (21 C)
Dew Point: 62 F (17 C)
Relative Humidity: 77%
Pressure (altimeter): 29.50 in. Hg (0999 hPa)
ob: EDDK 231350Z AUTO 21003KT 160V270 9999 SHRA BKN039 FEW///TCU 21/17 Q0999 TEMPO 24015G30KT 4000 TSRA BKN025CB
cycle: 14

Station Type Date Time Source
EDDK TAF 2022/05/23 13:44 UTC NOAA

TAF
AMD EDDK 231329Z 2313/2418 15012KT 9999 SCT040
TEMPO 2314/2320 24015G25KT 4000 +SHRA BKN025CB PROB30
TEMPO 2314/2318 20020G35KT 2000 +TSGRRA BKN020CB
BECMG 2317/2320 26010KT PROB30
TEMPO 2322/2401 BKN014 PROB30
TEMPO 2409/2415 24015G25KT

Example: see airport list